Hurleton, California
Current Conditions -  °F | °C
As of 8:53 AM on Friday 24 Oct 2014 (Local Time) from KOVE Reporting Station
Moderate Fog Moderate Fog  
Wind Chill: 53°   Ceiling: 100
Heat Index: 53°   Visibility: 0.5mi
Dew Point: 52°   Wind: 0mph
Humidity: 96%   Direction: NA
Pressure: 30"   Gusts: NA
Location:  39.5324°N, 121.648°W
Report Text: KOVE 241553Z AUTO 00000KT 1/2SM FG VV001 12/11 A3000 RMK AO2 SLP160 T01170111
Loading
Personal Weather Stations






























Interactive Weather Map
Tropical Storm Tracking
New forecast layout! Learn more

10-Day Weather Forecast

Advertisements
Track Severe Weather on mobile